createdAt,value
2018-10-05T00:01:48.806Z,6.85
2018-10-05T00:04:30.355Z,6.87
2018-10-05T00:07:12.880Z,6.78
2018-10-05T00:09:53.676Z,6.72
2018-10-05T00:12:34.455Z,6.67
2018-10-05T00:15:15.490Z,7.05
2018-10-05T00:17:56.852Z,7.35
2018-10-05T00:20:38.368Z,7.00
2018-10-05T00:23:19.240Z,7.50
2018-10-05T00:26:00.773Z,6.83
2018-10-05T00:28:41.807Z,6.78
2018-10-05T00:31:22.540Z,6.70
2018-10-05T00:34:03.578Z,6.70
2018-10-05T00:36:44.759Z,6.40
2018-10-05T00:39:26.350Z,6.45
2018-10-05T00:42:07.645Z,6.30
2018-10-05T00:44:48.648Z,6.30
2018-10-05T00:47:29.770Z,6.40
2018-10-05T00:50:11.108Z,5.75
2018-10-05T00:52:52.336Z,6.05
2018-10-05T00:55:34.063Z,6.42
2018-10-05T00:58:16.307Z,6.45
2018-10-05T01:00:57.119Z,6.90
2018-10-05T01:03:38.665Z,6.55
2018-10-05T01:06:19.805Z,6.55
2018-10-05T01:09:01.083Z,5.50
2018-10-05T01:11:43.558Z,5.75
2018-10-05T01:14:24.336Z,5.90
2018-10-05T01:17:05.959Z,5.47
2018-10-05T01:19:47.355Z,5.83
2018-10-05T01:22:28.534Z,6.17
2018-10-05T01:25:09.658Z,5.60
2018-10-05T01:27:50.943Z,5.62
2018-10-05T01:30:32.049Z,5.60
2018-10-05T01:33:13.192Z,5.67
2018-10-05T01:35:53.967Z,5.37
2018-10-05T01:38:35.099Z,5.80
2018-10-05T01:41:16.016Z,6.50
2018-10-05T01:43:56.823Z,6.17
2018-10-05T01:46:38.784Z,6.42
2018-10-05T01:49:21.994Z,6.03
2018-10-05T01:52:03.762Z,6.35
2018-10-05T01:54:45.096Z,5.75
2018-10-05T01:57:26.437Z,5.87
2018-10-05T02:00:08.259Z,5.95
2018-10-05T02:02:49.788Z,5.80
2018-10-05T02:05:31.062Z,6.03
2018-10-05T02:08:12.268Z,6.28
2018-10-05T02:10:53.052Z,5.17
2018-10-05T02:13:33.931Z,5.55
2018-10-05T02:16:14.993Z,5.70
2018-10-05T02:18:55.910Z,5.75
2018-10-05T02:21:37.614Z,5.70
2018-10-05T02:24:18.543Z,5.67
2018-10-05T02:26:59.956Z,6.12
2018-10-05T02:29:41.552Z,5.65
2018-10-05T02:32:24.010Z,5.50
2018-10-05T02:35:06.784Z,5.75
2018-10-05T02:37:47.596Z,5.58
2018-10-05T02:40:29.448Z,6.08
2018-10-05T02:43:10.850Z,5.33
2018-10-05T02:45:52.423Z,6.42
2018-10-05T02:48:33.596Z,6.12
2018-10-05T02:51:14.759Z,5.40
2018-10-05T02:53:55.797Z,5.70
2018-10-05T02:56:36.643Z,5.42
2018-10-05T02:59:17.885Z,5.65
2018-10-05T03:02:15.775Z,5.20
2018-10-05T03:04:57.591Z,5.03
2018-10-05T03:07:38.405Z,5.58
2018-10-05T03:10:19.266Z,5.03
2018-10-05T03:13:00.219Z,5.12
2018-10-05T03:15:41.804Z,5.78
2018-10-05T03:18:22.792Z,5.80
2018-10-05T03:21:03.899Z,5.17
2018-10-05T03:23:44.858Z,6.17
2018-10-05T03:26:25.691Z,5.60
2018-10-05T03:29:07.598Z,5.35
2018-10-05T03:31:48.397Z,5.85
2018-10-05T03:34:29.372Z,5.53
2018-10-05T03:37:10.203Z,5.33
2018-10-05T03:39:51.182Z,5.20
2018-10-05T03:42:32.148Z,5.83
2018-10-05T03:45:13.745Z,5.28
2018-10-05T03:47:54.754Z,5.28
2018-10-05T03:50:35.965Z,6.40
2018-10-05T03:53:17.422Z,6.22
2018-10-05T03:55:58.149Z,5.67
2018-10-05T03:58:39.283Z,5.95
2018-10-05T04:01:20.111Z,5.87
2018-10-05T04:04:01.011Z,5.65
2018-10-05T04:06:41.994Z,5.65
2018-10-05T04:09:23.844Z,5.85
2018-10-05T04:12:05.596Z,5.30
2018-10-05T04:14:46.330Z,5.37
2018-10-05T04:17:27.327Z,5.50
2018-10-05T04:20:08.655Z,5.45
2018-10-05T04:22:49.723Z,5.58
2018-10-05T04:25:30.653Z,5.53
2018-10-05T04:28:12.155Z,5.90
2018-10-05T04:30:53.099Z,6.00
2018-10-05T04:33:34.280Z,5.53
2018-10-05T04:36:15.301Z,5.70
2018-10-05T04:38:56.324Z,5.37
2018-10-05T04:41:37.300Z,6.00
2018-10-05T04:44:17.979Z,5.83
2018-10-05T04:46:59.129Z,5.75
2018-10-05T04:49:40.076Z,5.60
2018-10-05T04:52:21.159Z,5.05
2018-10-05T04:55:01.978Z,5.90
2018-10-05T04:57:42.743Z,5.78
2018-10-05T05:00:24.130Z,6.33
2018-10-05T05:03:04.940Z,6.22
2018-10-05T05:05:46.140Z,5.78
2018-10-05T05:08:27.432Z,6.30
2018-10-05T05:11:08.856Z,6.15
2018-10-05T05:13:51.808Z,5.85
2018-10-05T05:16:32.702Z,6.55
2018-10-05T05:19:13.945Z,5.87
2018-10-05T05:21:54.716Z,5.55
2018-10-05T05:24:35.441Z,6.15
2018-10-05T05:27:16.519Z,6.17
2018-10-05T05:29:57.606Z,6.53
2018-10-05T05:32:39.067Z,6.28
2018-10-05T05:35:19.867Z,5.97
2018-10-05T05:38:01.076Z,5.58
2018-10-05T05:40:42.259Z,6.72
2018-10-05T05:43:23.460Z,7.25
2018-10-05T05:46:05.129Z,5.72
2018-10-05T05:48:46.336Z,6.25
2018-10-05T05:51:28.100Z,6.50
2018-10-05T05:54:09.449Z,6.58
2018-10-05T05:56:51.060Z,6.22
2018-10-05T05:59:32.126Z,5.78
2018-10-05T06:02:13.664Z,6.05
2018-10-05T06:04:55.728Z,6.90
2018-10-05T06:07:36.881Z,5.75
2018-10-05T06:10:18.552Z,6.33
2018-10-05T06:13:00.083Z,6.70
2018-10-05T06:15:40.847Z,6.28
2018-10-05T06:18:22.569Z,6.50
2018-10-05T06:21:04.939Z,6.42
2018-10-05T06:23:46.263Z,6.28
2018-10-05T06:26:28.035Z,5.92
2018-10-05T06:29:09.243Z,6.12
2018-10-05T06:31:50.827Z,6.35
2018-10-05T06:34:31.881Z,5.65
2018-10-05T06:37:14.055Z,5.87
2018-10-05T06:39:55.665Z,5.60
2018-10-05T06:42:36.567Z,5.83
2018-10-05T06:45:18.083Z,6.20
2018-10-05T06:47:58.762Z,5.85
2018-10-05T06:50:39.547Z,6.30
2018-10-05T06:53:20.651Z,6.03
2018-10-05T06:56:02.519Z,6.00
2018-10-05T06:58:43.329Z,6.15
2018-10-05T07:01:24.299Z,5.72
2018-10-05T07:04:05.141Z,6.10
2018-10-05T07:06:46.130Z,5.87
2018-10-05T07:09:27.091Z,5.85
2018-10-05T07:12:07.693Z,6.27
2018-10-05T07:14:49.518Z,6.12
2018-10-05T07:17:30.381Z,5.60
2018-10-05T07:20:11.004Z,6.30
2018-10-05T07:22:51.806Z,5.77
2018-10-05T07:25:33.093Z,6.03
2018-10-05T07:28:15.075Z,6.50
2018-10-05T07:30:56.032Z,5.53
2018-10-05T07:33:36.996Z,5.87
2018-10-05T07:36:17.536Z,5.63
2018-10-05T07:38:57.979Z,6.20
2018-10-05T07:41:38.850Z,5.73
2018-10-05T07:44:19.497Z,5.70
2018-10-05T07:47:00.327Z,6.37
2018-10-05T07:49:40.785Z,6.23
2018-10-05T07:52:21.475Z,6.30
2018-10-05T07:55:02.286Z,5.70
2018-10-05T07:57:43.578Z,6.03
2018-10-05T08:00:24.397Z,5.60
2018-10-05T08:03:06.494Z,5.70
2018-10-05T08:05:47.370Z,6.30
2018-10-05T08:08:27.944Z,5.50
2018-10-05T08:11:15.087Z,5.47
2018-10-05T08:13:56.112Z,5.73
2018-10-05T08:16:36.788Z,5.70
2018-10-05T08:19:18.122Z,4.87
2018-10-05T08:21:58.699Z,5.07
2018-10-05T08:24:39.395Z,5.40
2018-10-05T08:27:19.893Z,6.33
2018-10-05T08:30:00.470Z,5.63
2018-10-05T08:32:41.558Z,5.33
2018-10-05T08:35:22.542Z,5.23
2018-10-05T08:38:04.135Z,5.47
2018-10-05T08:40:45.060Z,5.87
2018-10-05T08:43:25.825Z,5.60
2018-10-05T08:46:06.407Z,5.80
2018-10-05T08:48:47.585Z,5.97
2018-10-05T08:51:29.337Z,5.77
2018-10-05T08:54:10.656Z,5.67
2018-10-05T08:56:51.692Z,5.40
2018-10-05T08:59:32.684Z,4.97
2018-10-05T09:02:13.292Z,5.40
2018-10-05T09:04:54.187Z,5.17
2018-10-05T09:07:34.727Z,4.80
2018-10-05T09:10:15.420Z,4.83
2018-10-05T09:12:56.294Z,5.07
2018-10-05T09:15:37.164Z,5.23
2018-10-05T09:18:18.269Z,5.23
2018-10-05T09:20:58.979Z,5.40
2018-10-05T09:23:39.573Z,5.07
2018-10-05T09:26:20.374Z,5.07
2018-10-05T09:29:00.971Z,4.70
2018-10-05T09:31:41.886Z,4.47
2018-10-05T09:34:23.114Z,5.37
2018-10-05T09:37:03.863Z,4.63
2018-10-05T09:39:45.488Z,5.40
2018-10-05T09:42:26.694Z,5.53
2018-10-05T09:45:07.843Z,4.97
2018-10-05T09:47:48.913Z,5.37
2018-10-05T09:50:29.349Z,4.70
2018-10-05T09:53:10.112Z,4.47
2018-10-05T09:55:50.748Z,4.97
2018-10-05T09:58:31.991Z,4.93
2018-10-05T10:01:18.679Z,4.17
2018-10-05T10:03:59.531Z,4.70
2018-10-05T10:06:40.987Z,4.67
2018-10-05T10:09:21.437Z,4.43
2018-10-05T10:12:02.664Z,4.33
2018-10-05T10:14:43.223Z,4.00
2018-10-05T10:17:24.203Z,4.07
2018-10-05T10:20:04.710Z,4.07
2018-10-05T10:22:45.355Z,4.90
2018-10-05T10:25:26.440Z,4.47
2018-10-05T10:28:07.503Z,4.17
2018-10-05T10:30:48.181Z,3.83
2018-10-05T10:33:28.701Z,4.00
2018-10-05T10:36:09.260Z,3.80
2018-10-05T10:38:50.350Z,3.87
2018-10-05T10:41:31.229Z,4.23
2018-10-05T10:44:11.783Z,4.20
2018-10-05T10:46:52.539Z,3.57
2018-10-05T10:49:33.184Z,4.00
2018-10-05T10:52:13.750Z,4.20
2018-10-05T10:54:54.813Z,3.83
2018-10-05T10:57:35.565Z,3.47
2018-10-05T11:00:17.283Z,3.70
2018-10-05T11:02:58.459Z,3.50
2018-10-05T11:05:39.890Z,3.87
2018-10-05T11:08:20.334Z,3.63
2018-10-05T11:11:02.156Z,3.70
2018-10-05T11:13:43.115Z,4.20
2018-10-05T11:16:23.738Z,3.60
2018-10-05T11:19:04.567Z,3.63
2018-10-05T11:21:45.431Z,3.70
2018-10-05T11:24:25.820Z,3.40
2018-10-05T11:27:07.324Z,3.93
2018-10-05T11:29:47.897Z,4.27
2018-10-05T11:32:28.481Z,2.93
2018-10-05T11:35:09.434Z,3.80
2018-10-05T11:37:50.456Z,3.40
2018-10-05T11:40:31.526Z,3.97
2018-10-05T11:43:12.997Z,3.10
2018-10-05T11:45:54.401Z,3.43
2018-10-05T11:48:35.286Z,3.40
2018-10-05T11:51:16.149Z,3.50
2018-10-05T11:53:57.166Z,3.20
2018-10-05T11:56:37.819Z,3.20
2018-10-05T11:59:18.344Z,3.50
2018-10-05T12:01:59.267Z,3.60
2018-10-05T12:04:40.141Z,3.70
2018-10-05T12:07:20.928Z,3.50
2018-10-05T12:10:01.695Z,3.47
2018-10-05T12:12:42.492Z,3.03
2018-10-05T12:15:23.301Z,2.80
2018-10-05T12:18:05.400Z,3.37
2018-10-05T12:20:45.986Z,3.47
2018-10-05T12:23:27.143Z,3.47
2018-10-05T12:26:07.631Z,3.50
2018-10-05T12:28:48.194Z,3.40
2018-10-05T12:31:29.272Z,3.20
2018-10-05T12:34:10.118Z,3.13
2018-10-05T12:36:50.519Z,3.00
2018-10-05T12:39:31.301Z,3.80
2018-10-05T12:42:12.504Z,3.27
2018-10-05T12:44:53.746Z,2.70
2018-10-05T12:47:35.100Z,2.77
2018-10-05T12:50:16.214Z,3.60
2018-10-05T12:52:57.106Z,3.27
2018-10-05T12:55:40.427Z,2.93
2018-10-05T12:58:22.222Z,2.87
2018-10-05T13:01:02.787Z,2.40
2018-10-05T13:03:44.062Z,1.97
2018-10-05T13:06:25.231Z,2.03
2018-10-05T13:09:08.005Z,1.80
2018-10-05T13:11:49.275Z,1.80
2018-10-05T13:14:29.875Z,2.07
2018-10-05T13:17:10.677Z,2.03
2018-10-05T13:19:51.233Z,1.90
2018-10-05T13:22:32.067Z,2.63
2018-10-05T13:25:12.876Z,2.07
2018-10-05T13:27:53.552Z,2.10
2018-10-05T13:30:34.765Z,2.30
2018-10-05T13:33:15.347Z,1.93
2018-10-05T13:35:56.696Z,2.30
2018-10-05T13:38:38.128Z,2.60
2018-10-05T13:41:18.971Z,2.73
2018-10-05T13:44:00.337Z,3.27
2018-10-05T13:46:41.593Z,3.67
2018-10-05T13:49:22.262Z,3.20
2018-10-05T13:52:03.272Z,3.40
2018-10-05T13:54:44.219Z,3.20
2018-10-05T13:57:24.935Z,3.50
2018-10-05T14:00:06.691Z,4.00
2018-10-05T14:02:47.547Z,3.87
2018-10-05T14:05:28.218Z,3.80
2018-10-05T14:08:08.721Z,3.47
2018-10-05T14:10:49.656Z,3.43
2018-10-05T14:13:30.221Z,4.00
2018-10-05T14:16:10.992Z,3.77
2018-10-05T14:18:53.476Z,4.03
2018-10-05T14:21:34.299Z,4.50
2018-10-05T14:24:15.180Z,3.93
2018-10-05T14:26:56.660Z,3.90
2018-10-05T14:29:37.619Z,3.70
2018-10-05T14:32:18.088Z,4.37
2018-10-05T14:34:58.645Z,4.40
2018-10-05T14:37:39.884Z,4.20
2018-10-05T14:40:21.285Z,4.40
2018-10-05T14:43:02.006Z,4.23
2018-10-05T14:45:42.584Z,4.43
2018-10-05T14:48:23.439Z,4.43
2018-10-05T14:51:04.446Z,3.77
2018-10-05T14:53:45.007Z,4.03
2018-10-05T14:56:25.643Z,4.53
2018-10-05T14:59:06.606Z,4.77
2018-10-05T15:01:47.632Z,4.30
2018-10-05T15:04:28.245Z,4.50
2018-10-05T15:07:09.170Z,4.53
2018-10-05T15:09:49.852Z,4.00
2018-10-05T15:12:30.443Z,5.27
2018-10-05T15:15:11.909Z,4.20
2018-10-05T15:17:53.230Z,4.47
2018-10-05T15:20:33.798Z,5.13
2018-10-05T15:23:14.829Z,4.47
2018-10-05T15:25:56.256Z,4.60
2018-10-05T15:28:37.183Z,5.00
2018-10-05T15:31:18.605Z,4.50
2018-10-05T15:33:59.722Z,5.13
2018-10-05T15:36:40.957Z,4.43
2018-10-05T15:39:22.032Z,4.90
2018-10-05T15:42:02.820Z,5.70
2018-10-05T15:44:43.751Z,4.80
2018-10-05T15:47:24.262Z,5.27
2018-10-05T15:50:04.984Z,5.43
2018-10-05T15:52:45.697Z,4.97
2018-10-05T15:55:26.524Z,5.00
2018-10-05T15:58:07.527Z,5.20
2018-10-05T16:00:48.298Z,5.00
2018-10-05T16:03:29.323Z,5.40
2018-10-05T16:06:10.623Z,5.60
2018-10-05T16:08:51.110Z,5.23
2018-10-05T16:11:31.665Z,5.43
2018-10-05T16:14:12.194Z,6.57
2018-10-05T16:16:55.441Z,5.23
2018-10-05T16:19:36.479Z,5.50
2018-10-05T16:22:17.655Z,5.37
2018-10-05T16:24:58.592Z,5.70
2018-10-05T16:27:40.172Z,5.97
2018-10-05T16:30:21.870Z,5.50
2018-10-05T16:33:02.803Z,5.70
2018-10-05T16:35:43.776Z,5.43
2018-10-05T16:38:24.908Z,5.97
2018-10-05T16:41:05.827Z,5.97
2018-10-05T16:43:46.615Z,5.87
2018-10-05T16:46:27.663Z,5.83
2018-10-05T16:49:10.247Z,5.43
2018-10-05T16:51:51.100Z,5.67
2018-10-05T16:54:32.086Z,6.00
2018-10-05T16:57:13.903Z,5.60
2018-10-05T16:59:55.335Z,6.40
2018-10-05T17:02:36.688Z,5.30
2018-10-05T17:05:17.145Z,5.87
2018-10-05T17:07:57.989Z,6.13
2018-10-05T17:10:38.927Z,5.17
2018-10-05T17:13:19.755Z,5.57
2018-10-05T17:16:00.424Z,5.27
2018-10-05T17:18:40.964Z,5.63
2018-10-05T17:21:21.479Z,5.13
2018-10-05T17:24:01.971Z,4.87
2018-10-05T17:26:43.101Z,4.87
2018-10-05T17:29:23.814Z,4.70
2018-10-05T17:32:04.943Z,5.03
2018-10-05T17:34:45.533Z,5.23
2018-10-05T17:37:26.290Z,4.80
2018-10-05T17:40:08.582Z,5.33
2018-10-05T17:42:49.128Z,5.37
2018-10-05T17:45:30.055Z,5.23
2018-10-05T17:48:10.749Z,4.87
2018-10-05T17:50:51.049Z,5.50
2018-10-05T17:53:31.909Z,4.50
2018-10-05T17:56:12.901Z,6.20
2018-10-05T17:58:54.473Z,5.50
2018-10-05T18:01:35.258Z,6.15
2018-10-05T18:04:16.112Z,5.80
2018-10-05T18:06:56.590Z,6.67
2018-10-05T18:09:37.979Z,5.60
2018-10-05T18:12:19.197Z,6.40
2018-10-05T18:14:59.832Z,5.70
2018-10-05T18:17:40.596Z,6.07
2018-10-05T18:20:21.694Z,6.10
2018-10-05T18:23:03.000Z,6.77
2018-10-05T18:25:43.640Z,6.07
2018-10-05T18:28:24.737Z,6.13
2018-10-05T18:31:06.171Z,5.93
2018-10-05T18:33:46.939Z,6.17
2018-10-05T18:36:28.349Z,7.23
2018-10-05T18:39:11.815Z,6.50
2018-10-05T18:41:52.966Z,7.07
2018-10-05T18:44:34.202Z,7.20
2018-10-05T18:47:14.881Z,6.87
2018-10-05T18:49:55.462Z,7.23
2018-10-05T18:52:37.167Z,6.97
2018-10-05T18:55:17.686Z,7.80
2018-10-05T18:57:58.171Z,7.13
2018-10-05T19:00:39.211Z,6.97
2018-10-05T19:03:19.890Z,7.23
2018-10-05T19:06:00.715Z,7.23
2018-10-05T19:08:42.380Z,6.77
2018-10-05T19:11:23.837Z,6.87
2018-10-05T19:14:05.191Z,7.00
2018-10-05T19:16:46.444Z,7.10
2018-10-05T19:19:31.335Z,6.83
2018-10-05T19:22:13.329Z,6.93
2018-10-05T19:24:53.993Z,7.70
2018-10-05T19:27:35.382Z,7.13
2018-10-05T19:30:16.260Z,7.30
2018-10-05T19:32:56.814Z,7.13
2018-10-05T19:35:37.590Z,6.90
2018-10-05T19:38:18.461Z,7.07
2018-10-05T19:40:59.564Z,7.20
2018-10-05T19:43:40.380Z,6.95
2018-10-05T19:46:21.864Z,7.47
2018-10-05T19:49:03.091Z,6.97
2018-10-05T19:51:44.158Z,7.53
2018-10-05T19:54:25.231Z,7.85
2018-10-05T19:57:06.094Z,6.67
2018-10-05T19:59:46.917Z,7.15
2018-10-05T20:02:28.674Z,8.40
2018-10-05T20:05:10.226Z,7.10
2018-10-05T20:07:51.436Z,6.80
2018-10-05T20:10:32.891Z,7.55
2018-10-05T20:13:13.696Z,7.67
2018-10-05T20:15:55.255Z,7.37
2018-10-05T20:18:35.870Z,7.10
2018-10-05T20:21:17.196Z,7.50
2018-10-05T20:23:58.083Z,7.10
2018-10-05T20:26:38.933Z,7.42
2018-10-05T20:29:19.816Z,8.50
2018-10-05T20:32:01.125Z,8.18
2018-10-05T20:34:42.181Z,7.35
2018-10-05T20:37:23.138Z,7.50
2018-10-05T20:40:04.745Z,7.35
2018-10-05T20:42:45.943Z,8.55
2018-10-05T20:45:26.982Z,8.13
2018-10-05T20:48:07.989Z,9.38
2018-10-05T20:50:49.752Z,9.08
2018-10-05T20:53:31.032Z,9.20
2018-10-05T20:56:11.978Z,8.63
2018-10-05T20:58:52.733Z,7.85
2018-10-05T21:01:33.639Z,7.47
2018-10-05T21:04:15.008Z,7.75
2018-10-05T21:06:55.945Z,7.35
2018-10-05T21:09:36.878Z,6.95
2018-10-05T21:12:17.775Z,7.50
2018-10-05T21:14:58.693Z,7.85
2018-10-05T21:17:40.348Z,8.18
2018-10-05T21:20:21.936Z,7.62
2018-10-05T21:23:02.708Z,7.42
2018-10-05T21:25:44.145Z,8.20
2018-10-05T21:28:25.691Z,8.50
2018-10-05T21:31:06.957Z,8.75
2018-10-05T21:33:47.732Z,8.80
2018-10-05T21:36:28.555Z,9.13
2018-10-05T21:39:11.352Z,10.30
2018-10-05T21:41:52.675Z,9.38
2018-10-05T21:44:34.143Z,10.03
2018-10-05T21:47:15.379Z,10.18
2018-10-05T21:49:56.501Z,10.32
2018-10-05T21:52:38.220Z,10.90
2018-10-05T21:55:19.481Z,10.38
2018-10-05T21:58:00.761Z,9.83
2018-10-05T22:00:42.592Z,10.60
2018-10-05T22:03:24.566Z,9.15
2018-10-05T22:06:05.779Z,9.13
2018-10-05T22:08:47.263Z,9.63
2018-10-05T22:11:28.813Z,9.58
2018-10-05T22:14:10.184Z,8.45
2018-10-05T22:16:51.672Z,8.63
2018-10-05T22:19:32.664Z,8.55
2018-10-05T22:22:13.831Z,7.50
2018-10-05T22:24:54.802Z,8.28
2018-10-05T22:27:35.980Z,7.95
2018-10-05T22:30:16.815Z,7.80
2018-10-05T22:32:58.089Z,7.58
2018-10-05T22:35:38.939Z,7.45
2018-10-05T22:38:19.991Z,8.50
2018-10-05T22:41:00.906Z,8.28
2018-10-05T22:43:41.925Z,7.42
2018-10-05T22:46:22.979Z,7.50
2018-10-05T22:49:04.251Z,7.78
2018-10-05T22:51:46.180Z,7.70
2018-10-05T22:54:28.271Z,7.25
2018-10-05T22:57:11.510Z,7.10
2018-10-05T22:59:52.280Z,7.55
2018-10-05T23:02:33.237Z,7.28
2018-10-05T23:05:15.377Z,6.92
2018-10-05T23:07:56.102Z,7.72
2018-10-05T23:10:37.303Z,7.70
2018-10-05T23:13:19.445Z,7.15
2018-10-05T23:16:01.085Z,7.05
2018-10-05T23:18:42.347Z,7.25
2018-10-05T23:21:23.504Z,7.03
2018-10-05T23:24:05.256Z,7.67
2018-10-05T23:26:46.619Z,7.58
2018-10-05T23:29:27.470Z,7.08
2018-10-05T23:32:08.466Z,7.15
2018-10-05T23:34:49.199Z,7.12
2018-10-05T23:37:30.134Z,7.25
2018-10-05T23:40:11.208Z,7.37
2018-10-05T23:42:52.353Z,7.92
2018-10-05T23:45:33.248Z,7.67
2018-10-05T23:48:14.008Z,7.67
2018-10-05T23:50:54.741Z,7.80
2018-10-05T23:53:35.981Z,7.00
2018-10-05T23:56:16.794Z,7.60
2018-10-05T23:58:57.949Z,7.17
